Friday, October 20, 2017, 9:12 PM EDT
Back to Local

KIDI, Indiana / Stewart Field

Location: Indiana, PA, United States Lat: 40.633
Local Time: 9:12 PM EDT ( 1:12 GMT) Lon: -79.1
Time Zone: US/Eastern Elev: 1407 ft

Show me the last for .
Show Decoded

2017-10-20 20:55 METAR KIDI 210055Z AUTO 00000KT 10SM CLR 10/05 A3027 RMK A01 =
2017-10-20 20:35 METAR KIDI 210035Z AUTO 00000KT 10SM CLR 10/06 A3027 RMK A01 =
2017-10-20 20:15 METAR KIDI 210015Z AUTO 00000KT 10SM CLR 10/06 A3027 RMK A01 =
2017-10-20 19:55 METAR KIDI 202355Z AUTO 00000KT 10SM CLR 11/06 A3027 RMK A01 =
2017-10-20 19:35 METAR KIDI 202335Z AUTO 00000KT 10SM CLR 12/06 A3028 RMK A01 =
2017-10-20 19:15 METAR KIDI 202315Z AUTO 00000KT 10SM CLR 13/06 A3028 RMK A01 =
2017-10-20 18:55 METAR KIDI 202255Z AUTO 10003KT 10SM CLR 14/06 A3027 RMK A01 =
2017-10-20 18:35 METAR KIDI 202235Z AUTO 00000KT 10SM CLR 16/06 A3028 RMK A01 =
2017-10-20 18:15 METAR KIDI 202215Z AUTO 00000KT 5SM HZ CLR 18/03 A3027 RMK A01 =
2017-10-20 17:55 METAR KIDI 202155Z AUTO 00000KT 10SM CLR 19/03 A3027 RMK A01 =
2017-10-20 17:35 METAR KIDI 202135Z AUTO 29003KT 10SM CLR 20/02 A3027 RMK A01 =
2017-10-20 17:15 METAR KIDI 202115Z AUTO 27004KT 10SM CLR 21/02 A3027 RMK A01 =
2017-10-20 16:55 METAR KIDI 202055Z AUTO 00000KT 10SM CLR 21/02 A3027 RMK A01 =
2017-10-20 16:35 METAR KIDI 202035Z AUTO 34004KT 10SM CLR 21/00 A3027 RMK A01 =
2017-10-20 16:15 METAR KIDI 202015Z AUTO 24003KT 10SM CLR 21/01 A3027 RMK A01 =
2017-10-20 15:55 METAR KIDI 201955Z AUTO 00000KT 10SM CLR 21/00 A3028 RMK A01 =
2017-10-20 15:35 METAR KIDI 201935Z AUTO 29006KT 10SM CLR 21/01 A3028 RMK A01 =
2017-10-20 15:15 METAR KIDI 201915Z AUTO 00000KT 10SM CLR 21/01 A3028 RMK A01 =
2017-10-20 14:55 METAR KIDI 201855Z AUTO 00000KT 10SM CLR 20/M00 A3028 RMK A01 =
2017-10-20 14:35 METAR KIDI 201835Z AUTO 28005KT 10SM CLR 20/01 A3029 RMK A01 =
2017-10-20 14:15 METAR KIDI 201815Z AUTO 10SM CLR 20/02 A3029 RMK A01 =
2017-10-20 13:55 METAR KIDI 201755Z AUTO 00000KT 10SM CLR 19/M00 A3030 RMK A01 =
2017-10-20 13:35 METAR KIDI 201735Z AUTO 00000KT 8SM CLR 19/01 A3030 RMK A01 =
2017-10-20 13:15 METAR KIDI 201715Z AUTO VRB05KT 10SM CLR 18/M00 A3031 RMK A01 =
2017-10-20 12:55 METAR KIDI 201655Z AUTO 30003KT 10SM CLR 18/01 A3032 RMK A01 =
2017-10-20 12:35 METAR KIDI 201635Z AUTO 00000KT 10SM CLR 18/M00 A3033 RMK A01 =
2017-10-20 12:15 METAR KIDI 201615Z AUTO 32004KT 10SM CLR 17/01 A3033 RMK A01 =
2017-10-20 11:55 METAR KIDI 201555Z AUTO VRB05KT 10SM CLR 17/04 A3034 RMK A01 =
2017-10-20 11:35 METAR KIDI 201535Z AUTO VRB04KT 10SM CLR 17/06 A3034 RMK A01 =
2017-10-20 11:15 METAR KIDI 201515Z AUTO 33005KT 10SM CLR 16/07 A3034 RMK A01 =
2017-10-20 10:55 METAR KIDI 201455Z AUTO 34005KT 10SM CLR 15/08 A3034 RMK A01 =
2017-10-20 10:35 METAR KIDI 201435Z AUTO VRB04KT 10SM CLR 15/09 A3034 RMK A01 =
2017-10-20 10:15 METAR KIDI 201415Z AUTO VRB03KT 10SM CLR 14/10 A3034 RMK A01 =
2017-10-20 09:55 METAR KIDI 201355Z AUTO 00000KT 10SM CLR 13/10 A3034 RMK A01 =
2017-10-20 09:35 METAR KIDI 201335Z AUTO 00000KT 10SM CLR 12/09 A3034 RMK A01 =
2017-10-20 09:15 METAR KIDI 201315Z AUTO 00000KT 10SM CLR 12/09 A3033 RMK A01 =
2017-10-20 08:55 METAR KIDI 201255Z AUTO 00000KT 10SM CLR 10/08 A3033 RMK A01 =
2017-10-20 08:35 METAR KIDI 201235Z AUTO 00000KT 10SM CLR 07/06 A3032 RMK A01 =
2017-10-20 08:15 METAR KIDI 201215Z AUTO 00000KT 10SM CLR 06/06 A3031 RMK A01 =
2017-10-20 07:55 METAR KIDI 201155Z AUTO 00000KT 10SM CLR 07/06 A3030 RMK A01 =
2017-10-20 07:35 METAR KIDI 201135Z AUTO 10SM CLR 06/05 A3030 RMK A01 =
2017-10-20 07:15 METAR KIDI 201115Z AUTO 00000KT 10SM CLR 07/06 A3029 RMK A01 =
2017-10-20 06:55 METAR KIDI 201055Z AUTO 00000KT 10SM CLR 07/06 A3028 RMK A01 =
2017-10-20 06:35 METAR KIDI 201035Z AUTO 00000KT 10SM CLR 07/06 A3028 RMK A01 =
2017-10-20 06:15 METAR KIDI 201015Z AUTO 00000KT 10SM CLR 08/07 A3027 RMK A01 =
2017-10-20 05:55 METAR KIDI 200955Z AUTO 00000KT 10SM FEW031 FEW040 07/06 A3026 RMK A01 =
2017-10-20 05:35 METAR KIDI 200935Z AUTO 00000KT 10SM FEW033 SCT039 08/07 A3026 RMK A01 =
2017-10-20 05:15 METAR KIDI 200915Z AUTO 00000KT 10SM SCT035 SCT041 08/07 A3025 RMK A01 =
2017-10-20 04:55 METAR KIDI 200855Z AUTO 00000KT 10SM FEW025 BKN037 BKN045 08/07 A3024 RMK A01 =
2017-10-20 04:35 METAR KIDI 200835Z AUTO 00000KT 10SM FEW023 SCT028 BKN034 08/07 A3024 RMK A01 =
2017-10-20 04:15 METAR KIDI 200815Z AUTO 00000KT 10SM FEW023 SCT028 OVC042 08/07 A3023 RMK A01 =
2017-10-20 03:55 METAR KIDI 200755Z AUTO 00000KT 10SM OVC041 09/07 A3023 RMK A01 =
2017-10-20 03:35 METAR KIDI 200735Z AUTO 00000KT 10SM BKN038 OVC044 08/07 A3022 RMK A01 =
2017-10-20 03:15 METAR KIDI 200715Z AUTO 00000KT 10SM BKN035 OVC043 09/07 A3022 RMK A01 =
2017-10-20 02:55 METAR KIDI 200655Z AUTO 00000KT 10SM BKN034 OVC040 09/07 A3022 RMK A01 =
2017-10-20 02:35 METAR KIDI 200635Z AUTO 00000KT 10SM BKN038 OVC047 09/07 A3022 RMK A01 =
2017-10-20 02:15 METAR KIDI 200615Z AUTO 00000KT 10SM BKN035 OVC042 09/08 A3022 RMK A01 =
2017-10-20 01:55 METAR KIDI 200555Z AUTO 00000KT 10SM BKN036 OVC043 09/08 A3022 RMK A01 =
2017-10-20 01:35 METAR KIDI 200535Z AUTO 00000KT 10SM BKN042 BKN050 10/08 A3022 RMK A01 =
2017-10-20 01:15 METAR KIDI 200515Z AUTO 00000KT 10SM BKN042 OVC050 11/08 A3022 RMK A01 =
2017-10-20 00:55 METAR KIDI 200455Z AUTO 00000KT 10SM BKN045 OVC050 11/08 A3022 RMK A01 =
2017-10-20 00:35 METAR KIDI 200435Z AUTO 00000KT 9SM BKN042 BKN048 OVC055 11/08 A3021 RMK A01 =
2017-10-20 00:15 METAR KIDI 200415Z AUTO 00000KT 10SM OVC043 11/08 A3021 RMK A01 =
2017-10-19 23:55 METAR KIDI 200355Z AUTO 00000KT 10SM BKN042 OVC048 11/08 A3021 RMK A01 =
2017-10-19 23:35 METAR KIDI 200335Z AUTO 27003KT 10SM SCT039 OVC048 11/08 A3021 RMK A01 =
2017-10-19 23:15 METAR KIDI 200315Z AUTO 24005KT 10SM SCT041 BKN048 OVC055 11/08 A3020 RMK A01 =
2017-10-19 22:55 METAR KIDI 200255Z AUTO 23005KT 10SM BKN046 OVC055 11/08 A3021 RMK A01 =
2017-10-19 22:35 METAR KIDI 200235Z AUTO 23005KT 10SM OVC047 12/08 A3020 RMK A01 =
2017-10-19 22:15 METAR KIDI 200215Z AUTO 25004KT 10SM BKN047 13/08 A3020 RMK A01 =
2017-10-19 21:55 METAR KIDI 200155Z AUTO 27006KT 10SM SCT048 13/08 A3020 RMK A01 =
2017-10-19 21:35 METAR KIDI 200135Z AUTO 26006KT 10SM SCT049 SCT055 14/08 A3020 RMK A01 =
2017-10-19 21:15 METAR KIDI 200115Z AUTO 26005KT 10SM SCT050 BKN055 14/08 A3020 RMK A01 =

Support USWX by starting your Amazon purchase here.